sensor_id;sensor_type;location;lat;lon;timestamp;pressure;altitude;pressure_sealevel;temperature;humidity
43770;BME280;6597;52.218;9.882;2023-04-19T00:00:03;102049.13;;;8.79;60.43
43770;BME280;6597;52.218;9.882;2023-04-19T00:02:33;102051.75;;;8.79;60.19
43770;BME280;6597;52.218;9.882;2023-04-19T00:05:00;102048.25;;;8.79;59.79
43770;BME280;6597;52.218;9.882;2023-04-19T00:07:27;102043.88;;;8.78;60.65
43770;BME280;6597;52.218;9.882;2023-04-19T00:09:54;102036.03;;;8.76;59.33
43770;BME280;6597;52.218;9.882;2023-04-19T00:12:20;102038.66;;;8.74;57.16
43770;BME280;6597;52.218;9.882;2023-04-19T00:14:47;102036.03;;;8.74;56.18
43770;BME280;6597;52.218;9.882;2023-04-19T00:17:13;102042.16;;;8.75;54.73
43770;BME280;6597;52.218;9.882;2023-04-19T00:19:41;102036.09;;;8.70;53.04
43770;BME280;6597;52.218;9.882;2023-04-19T00:22:08;102034.34;;;8.69;53.73
43770;BME280;6597;52.218;9.882;2023-04-19T00:24:35;102040.47;;;8.66;53.00
43770;BME280;6597;52.218;9.882;2023-04-19T00:27:01;102036.13;;;8.64;53.29
43770;BME280;6597;52.218;9.882;2023-04-19T00:29:28;102043.13;;;8.60;54.27
43770;BME280;6597;52.218;9.882;2023-04-19T00:31:55;102034.41;;;8.60;54.88
43770;BME280;6597;52.218;9.882;2023-04-19T00:34:22;102037.94;;;8.56;54.77
43770;BME280;6597;52.218;9.882;2023-04-19T00:36:50;102035.34;;;8.51;56.22
43770;BME280;6597;52.218;9.882;2023-04-19T00:39:17;102037.09;;;8.45;55.17
43770;BME280;6597;52.218;9.882;2023-04-19T00:41:43;102042.38;;;8.41;54.47
43770;BME280;6597;52.218;9.882;2023-04-19T00:44:10;102045.88;;;8.39;54.34
43770;BME280;6597;52.218;9.882;2023-04-19T00:46:36;102043.25;;;8.33;54.04
43770;BME280;6597;52.218;9.882;2023-04-19T00:49:03;102041.56;;;8.23;54.35
43770;BME280;6597;52.218;9.882;2023-04-19T00:51:31;102044.25;;;8.15;53.97
43770;BME280;6597;52.218;9.882;2023-04-19T00:54:01;102052.09;;;8.09;55.87
43770;BME280;6597;52.218;9.882;2023-04-19T00:56:28;102044.28;;;8.00;55.71
43770;BME280;6597;52.218;9.882;2023-04-19T00:58:55;102044.31;;;7.94;55.55
43770;BME280;6597;52.218;9.882;2023-04-19T01:01:22;102039.13;;;7.86;56.04
43770;BME280;6597;52.218;9.882;2023-04-19T01:03:48;102041.72;;;7.77;56.65
43770;BME280;6597;52.218;9.882;2023-04-19T01:06:15;102049.63;;;7.65;56.16
43770;BME280;6597;52.218;9.882;2023-04-19T01:08:41;102047.91;;;7.58;57.00
43770;BME280;6597;52.218;9.882;2023-04-19T01:11:09;102055.75;;;7.45;58.02
43770;BME280;6597;52.218;9.882;2023-04-19T01:13:36;102056.63;;;7.34;58.85
43770;BME280;6597;52.218;9.882;2023-04-19T01:16:03;102061.00;;;7.16;59.23
43770;BME280;6597;52.218;9.882;2023-04-19T01:18:30;102059.25;;;7.03;59.84
43770;BME280;6597;52.218;9.882;2023-04-19T01:21:03;102054.03;;;6.90;61.02
43770;BME280;6597;52.218;9.882;2023-04-19T01:23:31;102054.00;;;6.76;62.00
43770;BME280;6597;52.218;9.882;2023-04-19T01:25:58;102057.47;;;6.58;62.02
43770;BME280;6597;52.218;9.882;2023-04-19T01:28:26;102057.44;;;6.49;62.42
43770;BME280;6597;52.218;9.882;2023-04-19T01:30:53;102053.94;;;6.36;63.36
43770;BME280;6597;52.218;9.882;2023-04-19T01:33:20;102051.28;;;6.22;64.16
43770;BME280;6597;52.218;9.882;2023-04-19T01:35:46;102064.31;;;6.18;64.90
43770;BME280;6597;52.218;9.882;2023-04-19T01:38:13;102057.28;;;6.08;65.28
43770;BME280;6597;52.218;9.882;2023-04-19T01:40:41;102050.31;;;5.99;65.73
43770;BME280;6597;52.218;9.882;2023-04-19T01:43:13;102064.19;;;5.90;66.24
43770;BME280;6597;52.218;9.882;2023-04-19T01:45:39;102057.16;;;5.85;66.71
43770;BME280;6597;52.218;9.882;2023-04-19T01:48:06;102067.56;;;5.82;66.78
43770;BME280;6597;52.218;9.882;2023-04-19T01:50:33;102064.91;;;5.76;67.30
43770;BME280;6597;52.218;9.882;2023-04-19T01:53:00;102067.50;;;5.73;66.78
43770;BME280;6597;52.218;9.882;2023-04-19T01:55:27;102062.25;;;5.65;67.89
43770;BME280;6597;52.218;9.882;2023-04-19T01:57:55;102063.97;;;5.61;67.59
43770;BME280;6597;52.218;9.882;2023-04-19T02:00:22;102062.22;;;5.57;68.77
43770;BME280;6597;52.218;9.882;2023-04-19T02:02:48;102054.31;;;5.48;68.87
43770;BME280;6597;52.218;9.882;2023-04-19T02:05:15;102053.41;;;5.40;69.72
43770;BME280;6597;52.218;9.882;2023-04-19T02:07:42;102050.78;;;5.37;70.26
43770;BME280;6597;52.218;9.882;2023-04-19T02:10:09;102056.81;;;5.27;70.35
43770;BME280;6597;52.218;9.882;2023-04-19T02:12:36;102058.53;;;5.25;70.41
43770;BME280;6597;52.218;9.882;2023-04-19T02:15:05;102054.13;;;5.19;70.91
43770;BME280;6597;52.218;9.882;2023-04-19T02:17:35;102054.09;;;5.18;71.21
43770;BME280;6597;52.218;9.882;2023-04-19T02:20:03;102058.44;;;5.17;71.42
43770;BME280;6597;52.218;9.882;2023-04-19T02:22:32;102062.75;;;5.12;72.16
43770;BME280;6597;52.218;9.882;2023-04-19T02:24:59;102060.94;;;5.05;72.08
43770;BME280;6597;52.218;9.882;2023-04-19T02:27:28;102066.13;;;5.02;73.00
43770;BME280;6597;52.218;9.882;2023-04-19T02:29:55;102062.59;;;4.94;73.48
43770;BME280;6597;52.218;9.882;2023-04-19T02:32:24;102063.47;;;4.93;73.19
43770;BME280;6597;52.218;9.882;2023-04-19T02:34:51;102063.44;;;4.88;73.66
43770;BME280;6597;52.218;9.882;2023-04-19T02:37:17;102067.69;;;4.85;74.13
43770;BME280;6597;52.218;9.882;2023-04-19T02:39:44;102061.59;;;4.83;74.45
43770;BME280;6597;52.218;9.882;2023-04-19T02:42:10;102075.44;;;4.77;74.65
43770;BME280;6597;52.218;9.882;2023-04-19T02:44:37;102064.97;;;4.71;75.18
43770;BME280;6597;52.218;9.882;2023-04-19T02:47:03;102064.06;;;4.66;74.83
43770;BME280;6597;52.218;9.882;2023-04-19T02:49:31;102068.34;;;4.59;75.30
43770;BME280;6597;52.218;9.882;2023-04-19T02:52:01;102063.97;;;4.55;75.67
43770;BME280;6597;52.218;9.882;2023-04-19T02:54:29;102065.66;;;4.55;75.81
43770;BME280;6597;52.218;9.882;2023-04-19T02:56:57;102072.56;;;4.51;76.03
43770;BME280;6597;52.218;9.882;2023-04-19T02:59:24;102069.09;;;4.51;76.10
43770;BME280;6597;52.218;9.882;2023-04-19T03:01:51;102060.38;;;4.46;76.32
43770;BME280;6597;52.218;9.882;2023-04-19T03:04:18;102064.69;;;4.44;76.65
43770;BME280;6597;52.218;9.882;2023-04-19T03:06:46;102066.38;;;4.38;76.61
43770;BME280;6597;52.218;9.882;2023-04-19T03:09:12;102070.66;;;4.33;77.17
43770;BME280;6597;52.218;9.882;2023-04-19T03:11:39;102057.63;;;4.32;77.53
43770;BME280;6597;52.218;9.882;2023-04-19T03:14:06;102056.72;;;4.27;77.11
43770;BME280;6597;52.218;9.882;2023-04-19T03:16:32;102061.81;;;4.22;77.46
43770;BME280;6597;52.218;9.882;2023-04-19T03:19:00;102057.44;;;4.17;77.81
43770;BME280;6597;52.218;9.882;2023-04-19T03:21:31;102059.13;;;4.13;78.00
43770;BME280;6597;52.218;9.882;2023-04-19T03:24:00;102056.50;;;4.12;78.50
43770;BME280;6597;52.218;9.882;2023-04-19T03:26:26;102060.69;;;3.99;79.05
43770;BME280;6597;52.218;9.882;2023-04-19T03:28:55;102055.47;;;3.96;79.37
43770;BME280;6597;52.218;9.882;2023-04-19T03:31:32;102053.69;;;3.92;79.89
43770;BME280;6597;52.218;9.882;2023-04-19T03:33:58;102043.22;;;3.89;79.85
43770;BME280;6597;52.218;9.882;2023-04-19T03:36:31;102050.97;;;3.84;80.26
43770;BME280;6597;52.218;9.882;2023-04-19T03:38:57;102048.34;;;3.83;81.00
43770;BME280;6597;52.218;9.882;2023-04-19T03:41:26;102050.00;;;3.76;81.11
43770;BME280;6597;52.218;9.882;2023-04-19T03:44:02;102053.41;;;3.72;81.70
43770;BME280;6597;52.218;9.882;2023-04-19T03:46:28;102043.72;;;3.60;82.68
43770;BME280;6597;52.218;9.882;2023-04-19T03:48:56;102044.50;;;3.55;82.76
43770;BME280;6597;52.218;9.882;2023-04-19T03:51:23;102039.28;;;3.53;82.87
43770;BME280;6597;52.218;9.882;2023-04-19T03:53:51;102040.06;;;3.48;83.25
43770;BME280;6597;52.218;9.882;2023-04-19T03:56:18;102041.78;;;3.47;83.47
43770;BME280;6597;52.218;9.882;2023-04-19T03:58:49;102046.06;;;3.43;83.86
43770;BME280;6597;52.218;9.882;2023-04-19T04:01:17;102036.47;;;3.38;83.77
43770;BME280;6597;52.218;9.882;2023-04-19T04:03:44;102041.56;;;3.30;84.26
43770;BME280;6597;52.218;9.882;2023-04-19T04:06:10;102037.19;;;3.28;84.89
43770;BME280;6597;52.218;9.882;2023-04-19T04:08:37;102044.03;;;3.24;85.27
43770;BME280;6597;52.218;9.882;2023-04-19T04:11:03;102051.03;;;3.28;85.04
43770;BME280;6597;52.218;9.882;2023-04-19T04:13:30;102049.38;;;3.32;85.55
43770;BME280;6597;52.218;9.882;2023-04-19T04:16:12;102044.19;;;3.33;85.08
43770;BME280;6597;52.218;9.882;2023-04-19T04:18:39;102044.16;;;3.32;85.35
43770;BME280;6597;52.218;9.882;2023-04-19T04:21:09;102042.44;;;3.32;85.33
43770;BME280;6597;52.218;9.882;2023-04-19T04:23:39;102046.75;;;3.30;85.17
43770;BME280;6597;52.218;9.882;2023-04-19T04:26:09;102050.22;;;3.31;85.69
43770;BME280;6597;52.218;9.882;2023-04-19T04:28:51;102040.69;;;3.31;85.75
43770;BME280;6597;52.218;9.882;2023-04-19T04:31:19;102035.53;;;3.33;85.74
43770;BME280;6597;52.218;9.882;2023-04-19T04:33:46;102036.41;;;3.33;85.91
43770;BME280;6597;52.218;9.882;2023-04-19T04:36:16;102041.63;;;3.36;86.32
43770;BME280;6597;52.218;9.882;2023-04-19T04:38:44;102041.69;;;3.39;86.31
43770;BME280;6597;52.218;9.882;2023-04-19T04:41:10;102039.97;;;3.41;86.88
43770;BME280;6597;52.218;9.882;2023-04-19T04:43:37;102043.47;;;3.43;86.58
43770;BME280;6597;52.218;9.882;2023-04-19T04:46:04;102040.03;;;3.46;86.75
43770;BME280;6597;52.218;9.882;2023-04-19T04:48:37;102035.81;;;3.53;86.54
43770;BME280;6597;52.218;9.882;2023-04-19T04:51:04;102046.31;;;3.59;86.26
43770;BME280;6597;52.218;9.882;2023-04-19T04:53:33;102041.19;;;3.65;86.05
43770;BME280;6597;52.218;9.882;2023-04-19T04:56:02;102041.28;;;3.71;85.98
43770;BME280;6597;52.218;9.882;2023-04-19T04:58:30;102044.78;;;3.74;85.81
43770;BME280;6597;52.218;9.882;2023-04-19T05:01:00;102039.66;;;3.81;85.76
43770;BME280;6597;52.218;9.882;2023-04-19T05:03:29;102040.59;;;3.86;85.03
43770;BME280;6597;52.218;9.882;2023-04-19T05:06:00;102041.53;;;3.91;84.86
43770;BME280;6597;52.218;9.882;2023-04-19T05:08:28;102046.81;;;3.97;84.42
43770;BME280;6597;52.218;9.882;2023-04-19T05:11:06;102039.94;;;4.00;83.89
43770;BME280;6597;52.218;9.882;2023-04-19T05:13:35;102042.59;;;4.08;83.42
43770;BME280;6597;52.218;9.882;2023-04-19T05:16:01;102042.66;;;4.13;82.66
43770;BME280;6597;52.218;9.882;2023-04-19T05:18:29;102044.44;;;4.17;82.51
43770;BME280;6597;52.218;9.882;2023-04-19T05:20:55;102041.09;;;4.24;82.66
43770;BME280;6597;52.218;9.882;2023-04-19T05:23:27;102035.06;;;4.29;82.47
43770;BME280;6597;52.218;9.882;2023-04-19T05:25:55;102048.16;;;4.37;81.63
43770;BME280;6597;52.218;9.882;2023-04-19T05:28:24;102044.78;;;4.47;81.59
43770;BME280;6597;52.218;9.882;2023-04-19T05:31:11;102043.13;;;4.54;81.47
43770;BME280;6597;52.218;9.882;2023-04-19T05:33:45;102045.81;;;4.61;80.81
43770;BME280;6597;52.218;9.882;2023-04-19T05:36:12;102043.28;;;4.69;80.81
43770;BME280;6597;52.218;9.882;2023-04-19T05:38:40;102042.50;;;4.81;80.28
43770;BME280;6597;52.218;9.882;2023-04-19T05:41:07;102039.97;;;4.87;80.19
43770;BME280;6597;52.218;9.882;2023-04-19T05:43:33;102045.28;;;4.99;79.60
43770;BME280;6597;52.218;9.882;2023-04-19T05:46:01;102036.69;;;5.09;79.74
43770;BME280;6597;52.218;9.882;2023-04-19T05:48:28;102041.97;;;5.18;77.92
43770;BME280;6597;52.218;9.882;2023-04-19T05:51:29;102043.81;;;5.31;78.43
43770;BME280;6597;52.218;9.882;2023-04-19T05:54:06;102037.81;;;5.43;77.96
43770;BME280;6597;52.218;9.882;2023-04-19T05:56:37;102032.69;;;5.54;78.58
43770;BME280;6597;52.218;9.882;2023-04-19T05:59:04;102032.72;;;5.63;77.48
43770;BME280;6597;52.218;9.882;2023-04-19T06:01:32;102030.16;;;5.71;76.68
43770;BME280;6597;52.218;9.882;2023-04-19T06:03:59;102034.56;;;5.82;76.20
43770;BME280;6597;52.218;9.882;2023-04-19T06:06:26;102027.66;;;5.89;75.42
43770;BME280;6597;52.218;9.882;2023-04-19T06:08:52;102027.72;;;5.97;74.45
43770;BME280;6597;52.218;9.882;2023-04-19T06:11:20;102028.63;;;6.05;74.31
43770;BME280;6597;52.218;9.882;2023-04-19T06:13:48;102035.59;;;6.13;73.41
43770;BME280;6597;52.218;9.882;2023-04-19T06:16:15;102031.25;;;6.17;73.11
43770;BME280;6597;52.218;9.882;2023-04-19T06:18:42;102030.41;;;6.19;73.15
43770;BME280;6597;52.218;9.882;2023-04-19T06:21:08;102032.19;;;6.27;73.22
43770;BME280;6597;52.218;9.882;2023-04-19T06:23:35;102033.06;;;6.36;73.49
43770;BME280;6597;52.218;9.882;2023-04-19T06:26:01;102033.06;;;6.45;71.39
43770;BME280;6597;52.218;9.882;2023-04-19T06:28:29;102024.38;;;6.48;70.35
43770;BME280;6597;52.218;9.882;2023-04-19T06:30:56;102025.28;;;6.51;70.84
43770;BME280;6597;52.218;9.882;2023-04-19T06:33:22;102025.28;;;6.58;70.43
43770;BME280;6597;52.218;9.882;2023-04-19T06:35:49;102032.25;;;6.69;70.48
43770;BME280;6597;52.218;9.882;2023-04-19T06:38:15;102021.81;;;6.80;70.57
43770;BME280;6597;52.218;9.882;2023-04-19T06:40:42;102028.81;;;6.90;68.68
43770;BME280;6597;52.218;9.882;2023-04-19T06:43:08;102026.19;;;6.99;69.38
43770;BME280;6597;52.218;9.882;2023-04-19T06:45:36;102033.13;;;7.11;67.86
43770;BME280;6597;52.218;9.882;2023-04-19T06:48:03;102017.50;;;7.15;67.38
43770;BME280;6597;52.218;9.882;2023-04-19T06:50:30;102022.72;;;7.22;67.60
43770;BME280;6597;52.218;9.882;2023-04-19T06:52:57;102018.31;;;7.34;66.66
43770;BME280;6597;52.218;9.882;2023-04-19T06:55:23;102015.69;;;7.43;67.19
43770;BME280;6597;52.218;9.882;2023-04-19T06:57:50;102013.03;;;7.65;66.68
43770;BME280;6597;52.218;9.882;2023-04-19T07:00:17;102014.69;;;7.89;66.95
43770;BME280;6597;52.218;9.882;2023-04-19T07:02:45;102014.66;;;7.99;61.43
43770;BME280;6597;52.218;9.882;2023-04-19T07:05:11;102011.09;;;8.12;61.55
43770;BME280;6597;52.218;9.882;2023-04-19T07:07:38;102002.31;;;8.33;61.91
43770;BME280;6597;52.218;9.882;2023-04-19T07:10:07;102003.06;;;8.52;59.38
43770;BME280;6597;52.218;9.882;2023-04-19T07:12:34;102011.66;;;8.71;59.28
43770;BME280;6597;52.218;9.882;2023-04-19T07:15:00;102010.75;;;8.78;58.15
43770;BME280;6597;52.218;9.882;2023-04-19T07:17:27;102001.84;;;8.97;58.84
43770;BME280;6597;52.218;9.882;2023-04-19T07:19:55;101992.97;;;9.14;58.36
43770;BME280;6597;52.218;9.882;2023-04-19T07:22:21;101995.38;;;9.35;56.08
43770;BME280;6597;52.218;9.882;2023-04-19T07:24:48;101990.91;;;9.46;56.79
43770;BME280;6597;52.218;9.882;2023-04-19T07:27:16;101982.88;;;9.58;56.86
43770;BME280;6597;52.218;9.882;2023-04-19T07:29:43;101988.88;;;9.70;55.23
43770;BME280;6597;52.218;9.882;2023-04-19T07:32:10;101981.56;;;9.94;55.12
43770;BME280;6597;52.218;9.882;2023-04-19T07:34:38;101982.25;;;10.12;53.26
43770;BME280;6597;52.218;9.882;2023-04-19T07:37:06;101984.97;;;10.01;52.34
43770;BME280;6597;52.218;9.882;2023-04-19T07:39:33;101981.44;;;10.04;52.21
43770;BME280;6597;52.218;9.882;2023-04-19T07:42:00;101986.81;;;9.96;51.71
43770;BME280;6597;52.218;9.882;2023-04-19T07:44:26;101982.53;;;9.89;52.02
43770;BME280;6597;52.218;9.882;2023-04-19T07:46:53;101984.97;;;10.01;51.74
43770;BME280;6597;52.218;9.882;2023-04-19T07:49:19;101986.66;;;10.08;52.21
43770;BME280;6597;52.218;9.882;2023-04-19T07:51:46;101981.91;;;10.35;51.72
43770;BME280;6597;52.218;9.882;2023-04-19T07:54:14;101980.72;;;10.57;51.48
43770;BME280;6597;52.218;9.882;2023-04-19T07:56:44;101969.91;;;10.77;49.19
43770;BME280;6597;52.218;9.882;2023-04-19T07:59:11;101976.44;;;10.51;47.89
43770;BME280;6597;52.218;9.882;2023-04-19T08:01:37;101974.91;;;10.37;48.88
43770;BME280;6597;52.218;9.882;2023-04-19T08:04:04;101971.31;;;10.44;49.56
43770;BME280;6597;52.218;9.882;2023-04-19T08:06:32;101969.31;;;10.58;49.01
43770;BME280;6597;52.218;9.882;2023-04-19T08:08:59;101968.44;;;10.59;47.69
43770;BME280;6597;52.218;9.882;2023-04-19T08:11:27;101963.28;;;10.53;49.11
43770;BME280;6597;52.218;9.882;2023-04-19T08:13:53;101964.81;;;10.66;48.61
43770;BME280;6597;52.218;9.882;2023-04-19T08:16:20;101960.09;;;10.86;50.00
43770;BME280;6597;52.218;9.882;2023-04-19T08:18:47;101956.44;;;10.95;48.15
43770;BME280;6597;52.218;9.882;2023-04-19T08:21:15;101951.31;;;10.89;47.64
43770;BME280;6597;52.218;9.882;2023-04-19T08:23:42;101953.69;;;11.03;46.94
43770;BME280;6597;52.218;9.882;2023-04-19T08:26:09;101944.84;;;11.08;46.49
43770;BME280;6597;52.218;9.882;2023-04-19T08:28:36;101947.25;;;11.20;47.45
43770;BME280;6597;52.218;9.882;2023-04-19T08:31:04;101947.78;;;11.36;45.81
43770;BME280;6597;52.218;9.882;2023-04-19T08:33:31;101948.56;;;11.43;47.43
43770;BME280;6597;52.218;9.882;2023-04-19T08:35:58;101944.59;;;11.65;46.20
43770;BME280;6597;52.218;9.882;2023-04-19T08:38:24;101936.53;;;11.74;43.69
43770;BME280;6597;52.218;9.882;2023-04-19T08:40:52;101939.09;;;11.79;42.58
43770;BME280;6597;52.218;9.882;2023-04-19T08:43:20;101943.91;;;11.56;41.94
43770;BME280;6597;52.218;9.882;2023-04-19T08:45:49;101933.44;;;11.54;42.74
43770;BME280;6597;52.218;9.882;2023-04-19T08:48:16;101943.00;;;11.58;42.55
43770;BME280;6597;52.218;9.882;2023-04-19T08:50:43;101926.22;;;11.64;41.67
43770;BME280;6597;52.218;9.882;2023-04-19T08:53:11;101932.09;;;11.76;43.24
43770;BME280;6597;52.218;9.882;2023-04-19T08:55:40;101925.53;;;11.97;42.57
43770;BME280;6597;52.218;9.882;2023-04-19T08:58:06;101928.66;;;12.14;41.76
43770;BME280;6597;52.218;9.882;2023-04-19T09:00:37;101921.22;;;12.32;41.05
43770;BME280;6597;52.218;9.882;2023-04-19T09:03:06;101916.63;;;12.41;41.78
43770;BME280;6597;52.218;9.882;2023-04-19T09:05:33;101915.00;;;12.36;41.91
43770;BME280;6597;52.218;9.882;2023-04-19T09:08:19;101913.47;;;12.26;41.39
43770;BME280;6597;52.218;9.882;2023-04-19T09:10:51;101901.28;;;12.57;41.11
43770;BME280;6597;52.218;9.882;2023-04-19T09:13:19;101907.19;;;12.67;41.04
43770;BME280;6597;52.218;9.882;2023-04-19T09:15:45;101905.31;;;12.72;40.38
43770;BME280;6597;52.218;9.882;2023-04-19T09:18:13;101907.75;;;12.80;40.94
43770;BME280;6597;52.218;9.882;2023-04-19T09:20:41;101897.22;;;12.80;39.66
43770;BME280;6597;52.218;9.882;2023-04-19T09:23:09;101887.13;;;12.95;40.24
43770;BME280;6597;52.218;9.882;2023-04-19T09:25:37;101889.22;;;13.15;40.64
43770;BME280;6597;52.218;9.882;2023-04-19T09:28:10;101883.13;;;13.13;38.51
43770;BME280;6597;52.218;9.882;2023-04-19T09:30:37;101878.97;;;13.04;38.42
43770;BME280;6597;52.218;9.882;2023-04-19T09:33:04;101874.75;;;13.30;40.23
43770;BME280;6597;52.218;9.882;2023-04-19T09:35:40;101869.97;;;13.44;35.17
43770;BME280;6597;52.218;9.882;2023-04-19T09:38:07;101854.22;;;13.10;32.42
43770;BME280;6597;52.218;9.882;2023-04-19T09:40:35;101855.25;;;13.04;33.78
43770;BME280;6597;52.218;9.882;2023-04-19T09:43:02;101858.63;;;13.09;34.05
43770;BME280;6597;52.218;9.882;2023-04-19T09:45:38;101866.75;;;13.02;33.96
43770;BME280;6597;52.218;9.882;2023-04-19T09:48:06;101850.06;;;13.01;32.56
43770;BME280;6597;52.218;9.882;2023-04-19T09:50:33;101843.03;;;13.02;33.36
43770;BME280;6597;52.218;9.882;2023-04-19T09:53:02;101838.41;;;13.10;33.21
43770;BME280;6597;52.218;9.882;2023-04-19T09:55:29;101838.56;;;13.36;36.30
43770;BME280;6597;52.218;9.882;2023-04-19T09:57:56;101835.00;;;13.67;34.68
43770;BME280;6597;52.218;9.882;2023-04-19T10:00:24;101833.88;;;14.02;35.05
43770;BME280;6597;52.218;9.882;2023-04-19T10:02:51;101822.97;;;14.13;34.57
43770;BME280;6597;52.218;9.882;2023-04-19T10:05:22;101825.47;;;14.17;34.28
43770;BME280;6597;52.218;9.882;2023-04-19T10:07:51;101821.34;;;14.09;34.42
43770;BME280;6597;52.218;9.882;2023-04-19T10:10:21;101819.31;;;14.17;33.92
43770;BME280;6597;52.218;9.882;2023-04-19T10:12:50;101806.53;;;14.31;34.20
43770;BME280;6597;52.218;9.882;2023-04-19T10:15:19;101810.84;;;14.33;34.67
43770;BME280;6597;52.218;9.882;2023-04-19T10:17:47;101810.44;;;14.46;33.32
43770;BME280;6597;52.218;9.882;2023-04-19T10:20:17;101809.94;;;14.59;33.64
43770;BME280;6597;52.218;9.882;2023-04-19T10:22:46;101796.38;;;14.45;32.36
43770;BME280;6597;52.218;9.882;2023-04-19T10:25:14;101802.56;;;14.44;31.93
43770;BME280;6597;52.218;9.882;2023-04-19T10:27:43;101782.06;;;14.24;31.82
43770;BME280;6597;52.218;9.882;2023-04-19T10:30:17;101778.34;;;14.30;32.55
43770;BME280;6597;52.218;9.882;2023-04-19T10:32:51;101777.72;;;14.50;33.67
43770;BME280;6597;52.218;9.882;2023-04-19T10:35:19;101785.53;;;14.78;33.35
43770;BME280;6597;52.218;9.882;2023-04-19T10:38:06;101770.25;;;14.86;30.94
43770;BME280;6597;52.218;9.882;2023-04-19T10:40:56;101762.66;;;14.77;30.74
43770;BME280;6597;52.218;9.882;2023-04-19T10:43:27;101764.72;;;14.69;30.99
43770;BME280;6597;52.218;9.882;2023-04-19T10:45:58;101752.94;;;14.77;30.55
43770;BME280;6597;52.218;9.882;2023-04-19T10:48:39;101757.03;;;14.86;30.67
43770;BME280;6597;52.218;9.882;2023-04-19T10:51:13;101743.50;;;14.93;29.88
43770;BME280;6597;52.218;9.882;2023-04-19T10:53:50;101737.47;;;15.13;31.85
43770;BME280;6597;52.218;9.882;2023-04-19T10:56:18;101730.72;;;15.28;29.00
43770;BME280;6597;52.218;9.882;2023-04-19T10:59:17;101734.72;;;15.16;28.31
43770;BME280;6597;52.218;9.882;2023-04-19T11:01:49;101722.50;;;15.36;30.72
43770;BME280;6597;52.218;9.882;2023-04-19T11:04:17;101725.94;;;15.61;29.34
43770;BME280;6597;52.218;9.882;2023-04-19T11:06:58;101717.47;;;15.51;28.52
43770;BME280;6597;52.218;9.882;2023-04-19T11:09:29;101711.13;;;15.34;27.51
43770;BME280;6597;52.218;9.882;2023-04-19T11:11:58;101703.47;;;15.26;27.40
43770;BME280;6597;52.218;9.882;2023-04-19T11:14:29;101705.84;;;15.34;27.32
43770;BME280;6597;52.218;9.882;2023-04-19T11:16:56;101700.63;;;15.09;27.23
43770;BME280;6597;52.218;9.882;2023-04-19T11:19:23;101695.25;;;15.34;28.41
43770;BME280;6597;52.218;9.882;2023-04-19T11:21:49;101691.16;;;15.70;28.89
43770;BME280;6597;52.218;9.882;2023-04-19T11:24:16;101684.72;;;15.76;27.81
43770;BME280;6597;52.218;9.882;2023-04-19T11:26:45;101671.44;;;15.77;28.04
43770;BME280;6597;52.218;9.882;2023-04-19T11:29:12;101677.16;;;15.45;28.48
43770;BME280;6597;52.218;9.882;2023-04-19T11:31:42;101678.50;;;15.55;26.25
43770;BME280;6597;52.218;9.882;2023-04-19T11:34:10;101669.88;;;15.50;28.14
43770;BME280;6597;52.218;9.882;2023-04-19T11:36:46;101663.00;;;15.46;26.85
43770;BME280;6597;52.218;9.882;2023-04-19T11:39:12;101668.78;;;15.12;27.43
43770;BME280;6597;52.218;9.882;2023-04-19T11:41:39;101676.66;;;15.13;27.69
43770;BME280;6597;52.218;9.882;2023-04-19T11:44:12;101654.13;;;15.25;27.28
43770;BME280;6597;52.218;9.882;2023-04-19T11:46:40;101660.28;;;15.25;28.32
43770;BME280;6597;52.218;9.882;2023-04-19T11:49:07;101668.63;;;15.38;28.54
43770;BME280;6597;52.218;9.882;2023-04-19T11:51:33;101651.16;;;15.54;28.31
43770;BME280;6597;52.218;9.882;2023-04-19T11:54:00;101650.09;;;15.60;29.04
43770;BME280;6597;52.218;9.882;2023-04-19T11:56:27;101640.00;;;16.10;29.40
43770;BME280;6597;52.218;9.882;2023-04-19T11:58:56;101638.72;;;16.19;29.18
43770;BME280;6597;52.218;9.882;2023-04-19T12:01:23;101642.72;;;16.09;29.15
43770;BME280;6597;52.218;9.882;2023-04-19T12:03:52;101643.84;;;16.03;29.34
43770;BME280;6597;52.218;9.882;2023-04-19T12:06:22;101649.72;;;16.10;28.77
43770;BME280;6597;52.218;9.882;2023-04-19T12:08:51;101617.44;;;16.02;27.80
43770;BME280;6597;52.218;9.882;2023-04-19T12:11:20;101630.31;;;16.09;28.22
43770;BME280;6597;52.218;9.882;2023-04-19T12:13:47;101642.91;;;16.04;28.05
43770;BME280;6597;52.218;9.882;2023-04-19T12:16:13;101641.50;;;15.75;28.50
43770;BME280;6597;52.218;9.882;2023-04-19T12:18:44;101634.44;;;15.54;28.04
43770;BME280;6597;52.218;9.882;2023-04-19T12:21:24;101633.78;;;15.49;27.99
43770;BME280;6597;52.218;9.882;2023-04-19T12:23:53;101629.53;;;15.45;28.59
43770;BME280;6597;52.218;9.882;2023-04-19T12:26:20;101629.13;;;15.54;29.22
43770;BME280;6597;52.218;9.882;2023-04-19T12:28:46;101624.91;;;15.72;29.58
43770;BME280;6597;52.218;9.882;2023-04-19T12:31:13;101625.75;;;15.93;27.25
43770;BME280;6597;52.218;9.882;2023-04-19T12:33:40;101621.34;;;15.51;29.47
43770;BME280;6597;52.218;9.882;2023-04-19T12:36:07;101624.97;;;14.83;28.48
43770;BME280;6597;52.218;9.882;2023-04-19T12:38:35;101622.69;;;14.50;28.20
43770;BME280;6597;52.218;9.882;2023-04-19T12:41:02;101622.38;;;14.81;29.75
43770;BME280;6597;52.218;9.882;2023-04-19T12:43:28;101608.03;;;15.32;29.06
43770;BME280;6597;52.218;9.882;2023-04-19T12:45:56;101608.97;;;15.51;30.56
43770;BME280;6597;52.218;9.882;2023-04-19T12:48:22;101602.88;;;15.49;29.83
43770;BME280;6597;52.218;9.882;2023-04-19T12:50:49;101608.75;;;15.56;30.01
43770;BME280;6597;52.218;9.882;2023-04-19T12:53:16;101596.25;;;15.81;29.38
43770;BME280;6597;52.218;9.882;2023-04-19T12:55:44;101595.38;;;16.01;29.41
43770;BME280;6597;52.218;9.882;2023-04-19T12:58:11;101601.28;;;15.67;30.64
43770;BME280;6597;52.218;9.882;2023-04-19T13:00:38;101601.84;;;14.88;29.63
43770;BME280;6597;52.218;9.882;2023-04-19T13:03:04;101604.38;;;14.21;31.06
43770;BME280;6597;52.218;9.882;2023-04-19T13:05:31;101611.91;;;13.83;32.22
43770;BME280;6597;52.218;9.882;2023-04-19T13:07:57;101604.38;;;14.21;33.60
43770;BME280;6597;52.218;9.882;2023-04-19T13:10:24;101580.59;;;15.13;32.91
43770;BME280;6597;52.218;9.882;2023-04-19T13:12:52;101582.88;;;15.64;31.26